Time;durP1;ratioP1;P1;durP2;ratioP2;P2;SDS_P1;SDS_P2;PMS_P1;PMS_P2;Temp;Humidity;BMP_temperature;BMP_pressure;BME280_temperature;BME280_humidity;BME280_pressure;Samples;Min_cycle;Max_cycle;Signal;HPM_P1;HPM_P2
2023/08/13 00:01:05;;;;;;;8.27;6.13;;;17.80;99.90;;;;;;5070833;28;20032;-80
2023/08/13 00:03:30;;;;;;;18.17;3.33;;;17.70;99.90;;;;;;5068836;28;20475;-80
2023/08/13 00:05:56;;;;;;;5.50;3.08;;;17.70;99.90;;;;;;5071883;28;20119;-80
2023/08/13 00:08:22;;;;;;;5.03;2.97;;;17.60;99.90;;;;;;5071257;28;20029;-80
2023/08/13 00:10:47;;;;;;;7.82;2.88;;;17.60;99.90;;;;;;5068745;28;20089;-80
2023/08/13 00:13:13;;;;;;;3.72;3.40;;;17.60;99.90;;;;;;5064870;28;20060;-80
2023/08/13 00:15:38;;;;;;;6.05;3.83;;;17.60;99.90;;;;;;5065712;28;20046;-80
2023/08/13 00:18:05;;;;;;;7.93;3.38;;;17.60;99.90;;;;;;5068579;28;20084;-80
2023/08/13 00:20:31;;;;;;;5.05;3.20;;;17.50;99.90;;;;;;5070886;28;20032;-80
2023/08/13 00:22:56;;;;;;;5.03;3.28;;;17.60;99.90;;;;;;5068238;28;20025;-80
2023/08/13 00:25:22;;;;;;;5.72;2.67;;;17.50;99.90;;;;;;5065250;28;20012;-80
2023/08/13 00:27:47;;;;;;;5.47;3.10;;;17.50;99.90;;;;;;5062565;28;20109;-80
2023/08/13 00:30:13;;;;;;;8.25;4.97;;;17.50;99.90;;;;;;5068673;28;20029;-80
2023/08/13 00:32:38;;;;;;;6.50;3.47;;;17.50;99.90;;;;;;5070517;28;20424;-80
2023/08/13 00:35:05;;;;;;;10.48;6.78;;;17.50;99.90;;;;;;5073704;28;20364;-80
2023/08/13 00:37:30;;;;;;;9.27;6.18;;;17.50;99.90;;;;;;5070951;28;20025;-80
2023/08/13 00:39:56;;;;;;;8.02;5.70;;;17.50;99.90;;;;;;5072022;28;20070;-80
2023/08/13 00:42:21;;;;;;;8.15;6.55;;;17.50;99.90;;;;;;5069529;28;20047;-80
2023/08/13 00:44:47;;;;;;;9.68;4.78;;;17.50;99.90;;;;;;5069572;28;20016;-80
2023/08/13 00:47:12;;;;;;;6.43;3.72;;;17.50;99.90;;;;;;5067060;28;20021;-80
2023/08/13 00:49:38;;;;;;;8.88;6.88;;;17.40;99.90;;;;;;5074862;28;20016;-80
2023/08/13 00:52:03;;;;;;;5.47;3.72;;;17.40;99.90;;;;;;5071339;28;20028;-80
2023/08/13 00:54:30;;;;;;;6.47;3.63;;;17.40;99.90;;;;;;5055382;28;20028;-80
2023/08/13 00:56:55;;;;;;;2.95;2.50;;;17.40;99.90;;;;;;5065286;28;20028;-80
2023/08/13 00:59:22;;;;;;;8.43;2.97;;;17.40;99.90;;;;;;5074459;28;20020;-80
2023/08/13 01:01:48;;;;;;;6.22;2.92;;;17.40;99.90;;;;;;5072161;28;20197;-80
2023/08/13 01:04:13;;;;;;;3.72;2.78;;;17.30;99.90;;;;;;5075583;28;20475;-80
2023/08/13 01:06:59;;;;;;;7.20;2.75;;;17.30;99.90;;;;;;5070842;28;20024;-80
2023/08/13 01:09:31;;;;;;;4.28;2.88;;;17.30;99.90;;;;;;5065564;28;20433;-80
2023/08/13 01:11:59;;;;;;;8.93;3.25;;;17.30;99.90;;;;;;5064952;28;20057;-80
2023/08/13 01:14:55;;;;;;;5.15;3.72;;;17.30;99.90;;;;;;5038165;28;20104;-80
2023/08/13 01:17:22;;;;;;;4.78;4.28;;;17.30;99.90;;;;;;5073188;28;20032;-80
2023/08/13 01:19:48;;;;;;;6.68;3.42;;;17.20;99.90;;;;;;5070300;28;20028;-80
2023/08/13 01:22:13;;;;;;;6.32;2.95;;;17.20;99.90;;;;;;5069161;28;20028;-80
2023/08/13 01:24:39;;;;;;;3.75;2.90;;;17.20;99.90;;;;;;5056647;28;20017;-80
2023/08/13 01:27:28;;;;;;;4.20;3.08;;;17.20;99.90;;;;;;5074748;28;20032;-80
2023/08/13 01:30:00;;;;;;;8.27;3.35;;;17.20;99.90;;;;;;5074423;28;20024;-80
2023/08/13 01:32:33;;;;;;;5.10;2.83;;;17.10;99.90;;;;;;5074171;28;20039;-80
2023/08/13 01:34:59;;;;;;;5.40;3.55;;;17.10;99.90;;;;;;5061672;28;20091;-80
2023/08/13 01:37:25;;;;;;;4.57;3.92;;;17.10;99.90;;;;;;5072275;28;20024;-80
2023/08/13 01:39:50;;;;;;;5.47;2.92;;;17.00;99.90;;;;;;5062690;28;20081;-80
2023/08/13 01:42:17;;;;;;;4.00;2.67;;;17.10;99.90;;;;;;5070363;28;20383;-80
2023/08/13 01:44:42;;;;;;;8.15;3.22;;;17.00;99.90;;;;;;5049526;28;20017;-80
2023/08/13 01:47:08;;;;;;;3.83;2.70;;;17.10;99.90;;;;;;5065822;28;20032;-80
2023/08/13 01:49:34;;;;;;;8.90;3.63;;;17.10;99.90;;;;;;5074353;28;20024;-80
2023/08/13 01:51:59;;;;;;;4.43;3.00;;;17.10;99.90;;;;;;5073311;28;20032;-80
2023/08/13 01:54:25;;;;;;;2.55;2.10;;;17.10;99.90;;;;;;5073266;28;20020;-80
2023/08/13 01:56:50;;;;;;;4.43;2.35;;;17.10;99.90;;;;;;5070247;28;20020;-80
2023/08/13 01:59:16;;;;;;;2.92;2.40;;;17.20;99.90;;;;;;5069034;28;20486;-80
2023/08/13 02:01:42;;;;;;;6.30;2.10;;;17.10;99.90;;;;;;5071880;28;20020;-80
2023/08/13 02:04:07;;;;;;;2.15;1.70;;;17.20;99.90;;;;;;5073891;28;20495;-80
2023/08/13 02:06:35;;;;;;;4.20;2.58;;;17.20;99.90;;;;;;5066061;28;20024;-80
2023/08/13 02:09:01;;;;;;;6.68;2.75;;;17.20;99.90;;;;;;5071050;28;20032;-80
2023/08/13 02:11:26;;;;;;;3.88;2.13;;;17.20;99.90;;;;;;5062724;28;20044;-80
2023/08/13 02:13:52;;;;;;;3.35;2.30;;;17.20;99.90;;;;;;5064743;28;20028;-80
2023/08/13 02:16:17;;;;;;;8.05;2.33;;;17.20;99.90;;;;;;5072901;28;20068;-80
2023/08/13 02:18:43;;;;;;;4.53;2.63;;;17.20;99.90;;;;;;5071576;28;20032;-80
2023/08/13 02:21:09;;;;;;;2.95;2.30;;;17.10;99.90;;;;;;5065868;28;20036;-80
2023/08/13 02:23:34;;;;;;;3.58;2.30;;;17.10;99.90;;;;;;5065172;28;20391;-80
2023/08/13 02:26:00;;;;;;;9.45;2.92;;;17.10;99.90;;;;;;5071080;28;20507;-80
2023/08/13 02:28:25;;;;;;;2.55;2.35;;;17.10;99.90;;;;;;5062823;28;20020;-80
2023/08/13 02:30:51;;;;;;;4.13;1.90;;;17.10;99.90;;;;;;5064566;28;20467;-80
2023/08/13 02:33:17;;;;;;;2.33;1.83;;;17.10;99.90;;;;;;5065810;28;20502;-80
2023/08/13 02:35:42;;;;;;;4.65;2.25;;;17.00;99.90;;;;;;5070801;28;20113;-80
2023/08/13 02:38:08;;;;;;;4.68;2.25;;;17.00;99.90;;;;;;5065419;28;20285;-80
2023/08/13 02:40:34;;;;;;;6.88;3.78;;;17.00;99.90;;;;;;5068398;28;20040;-80
2023/08/13 02:42:59;;;;;;;7.00;4.20;;;17.00;99.90;;;;;;5059633;28;20074;-80
2023/08/13 02:45:25;;;;;;;5.50;3.40;;;17.00;99.90;;;;;;5069738;28;20044;-80
2023/08/13 02:47:50;;;;;;;8.70;2.55;;;16.90;99.90;;;;;;5064843;28;20021;-80
2023/08/13 02:50:16;;;;;;;2.53;2.33;;;16.90;99.90;;;;;;5062763;28;20021;-80
2023/08/13 02:52:41;;;;;;;6.15;2.47;;;16.80;99.90;;;;;;5069672;28;20074;-80
2023/08/13 02:55:07;;;;;;;6.55;3.42;;;16.80;99.90;;;;;;5068945;28;20071;-80
2023/08/13 02:57:33;;;;;;;3.38;2.80;;;16.80;99.90;;;;;;5069070;28;20100;-80
2023/08/13 02:59:58;;;;;;;4.60;2.92;;;16.80;99.90;;;;;;5066288;28;20047;-80
2023/08/13 03:02:24;;;;;;;5.90;4.43;;;16.70;99.90;;;;;;5061440;28;20033;-80
2023/08/13 03:04:51;;;;;;;3.83;3.40;;;16.70;99.90;;;;;;5071691;28;20506;-80
2023/08/13 03:07:17;;;;;;;9.20;3.63;;;16.60;99.90;;;;;;5073224;28;20024;-80
2023/08/13 03:09:42;;;;;;;4.15;2.53;;;16.60;99.90;;;;;;5061270;28;20025;-80
2023/08/13 03:12:08;;;;;;;4.93;4.43;;;16.70;99.90;;;;;;5061409;28;20037;-80
2023/08/13 03:14:33;;;;;;;5.45;3.47;;;16.70;99.90;;;;;;5057586;28;20367;-80
2023/08/13 03:16:59;;;;;;;6.63;3.53;;;16.70;99.90;;;;;;5072123;28;20490;-80
2023/08/13 03:19:25;;;;;;;5.95;2.72;;;16.70;99.90;;;;;;5072908;28;20020;-80
2023/08/13 03:21:50;;;;;;;8.98;3.20;;;16.60;99.90;;;;;;5069498;28;20052;-80
2023/08/13 03:24:16;;;;;;;3.50;2.78;;;16.60;99.90;;;;;;5072306;28;20024;-80
2023/08/13 03:26:41;;;;;;;6.00;3.10;;;16.60;99.90;;;;;;5072776;28;20024;-80
2023/08/13 03:29:07;;;;;;;5.10;3.00;;;16.60;99.90;;;;;;5072424;28;20372;-80
2023/08/13 03:31:32;;;;;;;5.70;4.65;;;16.50;99.90;;;;;;5071982;28;20098;-80
2023/08/13 03:33:58;;;;;;;3.53;2.97;;;16.50;99.90;;;;;;5070649;28;20029;-80
2023/08/13 03:36:23;;;;;;;4.80;3.25;;;16.50;99.90;;;;;;5071955;28;20335;-80
2023/08/13 03:38:49;;;;;;;3.90;2.72;;;16.60;99.90;;;;;;5070851;28;20032;-80
2023/08/13 03:41:15;;;;;;;5.25;3.40;;;16.60;99.90;;;;;;5071141;28;20060;-79
2023/08/13 03:43:40;;;;;;;5.18;2.53;;;16.50;99.90;;;;;;5066570;28;20060;-79
2023/08/13 03:46:06;;;;;;;8.35;3.80;;;16.50;99.90;;;;;;5065990;28;20028;-79
2023/08/13 03:48:32;;;;;;;15.38;9.05;;;16.50;99.90;;;;;;5071716;28;20391;-79
2023/08/13 03:50:58;;;;;;;18.63;13.15;;;16.50;99.90;;;;;;5065239;28;20032;-78
2023/08/13 03:53:24;;;;;;;14.50;8.80;;;16.50;99.90;;;;;;5066949;28;20040;-78
2023/08/13 03:55:51;;;;;;;9.35;7.38;;;16.40;99.90;;;;;;5057239;28;20526;-78
2023/08/13 03:58:16;;;;;;;9.60;6.22;;;16.40;99.90;;;;;;5066379;28;20199;-78
2023/08/13 04:00:42;;;;;;;7.22;5.55;;;16.40;99.90;;;;;;5069447;28;20104;-78
2023/08/13 04:03:09;;;;;;;10.70;4.28;;;16.40;99.90;;;;;;5070019;28;20104;-78
2023/08/13 04:05:35;;;;;;;7.45;3.50;;;16.40;99.90;;;;;;5066255;28;20147;-78
2023/08/13 04:08:00;;;;;;;6.05;4.32;;;16.40;99.90;;;;;;5074033;28;20017;-78
2023/08/13 04:10:26;;;;;;;7.78;3.58;;;16.40;99.90;;;;;;5064386;28;20356;-78
2023/08/13 04:12:53;;;;;;;5.68;3.47;;;16.50;99.90;;;;;;5063271;28;20093;-78
2023/08/13 04:15:18;;;;;;;6.95;4.32;;;16.50;99.90;;;;;;5069688;28;20024;-78
2023/08/13 04:17:44;;;;;;;6.93;4.68;;;16.40;99.90;;;;;;5073075;28;20021;-78
2023/08/13 04:20:10;;;;;;;6.30;4.35;;;16.40;99.90;;;;;;5073541;28;20039;-78
2023/08/13 04:22:36;;;;;;;7.15;4.15;;;16.50;99.90;;;;;;5062165;28;20510;-78
2023/08/13 04:25:02;;;;;;;12.45;9.55;;;16.50;99.90;;;;;;5067141;28;20021;-78
2023/08/13 04:27:27;;;;;;;12.02;5.93;;;16.60;99.90;;;;;;5070231;28;20024;-78
2023/08/13 04:29:53;;;;;;;17.25;8.07;;;16.60;99.90;;;;;;5064787;28;20445;-78
2023/08/13 04:32:18;;;;;;;7.15;3.60;;;16.80;99.90;;;;;;5071692;28;20052;-78
2023/08/13 04:34:44;;;;;;;9.57;6.03;;;16.90;99.90;;;;;;5070365;28;20406;-78
2023/08/13 04:37:09;;;;;;;15.85;11.13;;;16.90;99.90;;;;;;5069520;28;20038;-78
2023/08/13 04:39:35;;;;;;;10.57;7.75;;;17.00;99.90;;;;;;5067359;28;20040;-78
2023/08/13 04:42:00;;;;;;;8.77;7.18;;;17.20;99.90;;;;;;5073628;28;20028;-78
2023/08/13 04:44:26;;;;;;;5.50;4.13;;;17.40;99.90;;;;;;5064200;28;20074;-78
2023/08/13 04:46:52;;;;;;;9.77;7.22;;;17.80;99.90;;;;;;5071514;28;20111;-78
2023/08/13 04:49:17;;;;;;;6.05;4.47;;;18.20;99.90;;;;;;5064603;28;20036;-78
2023/08/13 04:51:43;;;;;;;7.82;5.50;;;18.30;99.90;;;;;;5053410;28;20509;-78
2023/08/13 04:54:08;;;;;;;15.35;6.00;;;18.70;99.90;;;;;;5060595;28;20671;-78
2023/08/13 04:56:34;;;;;;;9.32;5.72;;;19.00;99.90;;;;;;5071829;28;20020;-78
2023/08/13 04:59:00;;;;;;;9.30;5.25;;;19.10;99.90;;;;;;5070757;28;20017;-78
2023/08/13 05:01:26;;;;;;;5.07;2.85;;;19.30;99.90;;;;;;5066009;28;20032;-78
2023/08/13 05:03:52;;;;;;;3.55;3.25;;;19.40;99.90;;;;;;5066141;28;20494;-78
2023/08/13 05:06:17;;;;;;;7.45;2.80;;;19.40;99.90;;;;;;5071327;28;20028;-78
2023/08/13 05:08:43;;;;;;;7.30;3.13;;;19.30;99.90;;;;;;5069279;28;20024;-78
2023/08/13 05:11:08;;;;;;;5.18;3.38;;;19.10;99.90;;;;;;5067248;28;20230;-78
2023/08/13 05:13:34;;;;;;;5.22;2.30;;;19.00;99.90;;;;;;5070777;28;20020;-78
2023/08/13 05:15:59;;;;;;;5.80;2.53;;;18.90;99.90;;;;;;5070569;28;20359;-78
2023/08/13 05:18:25;;;;;;;2.92;2.38;;;18.80;99.90;;;;;;5070852;28;20024;-78
2023/08/13 05:20:51;;;;;;;3.65;2.90;;;18.70;99.90;;;;;;5137947;23;20041;-71
2023/08/13 05:23:16;;;;;;;9.35;2.95;;;18.70;99.90;;;;;;5063318;28;20036;-71
2023/08/13 05:25:42;;;;;;;4.70;2.33;;;18.60;99.90;;;;;;5064898;28;20486;-71
2023/08/13 05:28:09;;;;;;;8.40;2.92;;;18.60;99.90;;;;;;5072340;28;20123;-71
2023/08/13 05:30:37;;;;;;;3.35;2.17;;;18.50;99.90;;;;;;5069098;28;20035;-71
2023/08/13 05:33:03;;;;;;;6.68;2.47;;;18.60;99.90;;;;;;5066610;28;20031;-71
2023/08/13 05:35:29;;;;;;;7.35;3.72;;;18.50;99.90;;;;;;5069157;28;20108;-71
2023/08/13 05:37:55;;;;;;;3.83;2.08;;;18.50;99.90;;;;;;5071809;28;20104;-71
2023/08/13 05:40:21;;;;;;;4.93;3.35;;;18.50;99.90;;;;;;5072640;28;20021;-71
2023/08/13 05:42:47;;;;;;;25.27;5.78;;;18.40;99.90;;;;;;5071802;28;20398;-71
2023/08/13 05:45:13;;;;;;;30.40;5.80;;;18.40;99.90;;;;;;5068276;28;20025;-71
2023/08/13 05:47:39;;;;;;;6.47;3.20;;;18.40;99.90;;;;;;5071436;28;20074;-71
2023/08/13 05:50:05;;;;;;;6.88;2.83;;;18.40;99.90;;;;;;5072866;28;20042;-71
2023/08/13 05:52:30;;;;;;;12.93;4.63;;;18.40;99.90;;;;;;5069116;28;20152;-71
2023/08/13 05:54:56;;;;;;;22.92;5.20;;;18.40;99.90;;;;;;5071836;28;20372;-71
2023/08/13 05:57:22;;;;;;;46.08;9.00;;;18.40;99.90;;;;;;5071245;28;20032;-71
2023/08/13 05:59:47;;;;;;;15.38;3.00;;;18.40;99.90;;;;;;5066918;28;20024;-71
2023/08/13 06:02:13;;;;;;;10.60;4.40;;;18.40;99.90;;;;;;5068756;28;20036;-71
2023/08/13 06:04:38;;;;;;;8.88;3.00;;;18.50;99.90;;;;;;5071485;28;20024;-71
2023/08/13 06:07:04;;;;;;;8.45;3.17;;;18.50;99.90;;;;;;5072127;28;20277;-71
2023/08/13 06:09:32;;;;;;;6.75;3.13;;;18.50;99.90;;;;;;5070513;28;20028;-71
2023/08/13 06:11:58;;;;;;;5.43;2.88;;;18.60;99.90;;;;;;5071687;28;20027;-71
2023/08/13 06:14:24;;;;;;;6.95;3.70;;;18.60;99.90;;;;;;5067498;28;20021;-71
2023/08/13 06:16:49;;;;;;;6.38;2.92;;;18.70;99.90;;;;;;5062005;28;20399;-71
2023/08/13 06:19:15;;;;;;;5.90;2.67;;;18.80;99.90;;;;;;5071445;28;20039;-71
2023/08/13 06:21:40;;;;;;;4.97;2.42;;;18.80;99.90;;;;;;5071151;28;20024;-71
2023/08/13 06:24:06;;;;;;;7.32;3.35;;;18.90;99.90;;;;;;5068091;28;20034;-71
2023/08/13 06:26:35;;;;;;;7.43;3.80;;;19.10;99.90;;;;;;5067883;28;20027;-71
2023/08/13 06:29:00;;;;;;;5.30;2.22;;;19.20;99.90;;;;;;5069695;28;20031;-71
2023/08/13 06:31:26;;;;;;;6.88;2.95;;;19.30;99.90;;;;;;5067722;28;20032;-71
2023/08/13 06:33:52;;;;;;;5.05;2.85;;;19.50;99.90;;;;;;5071521;28;20135;-71
2023/08/13 06:36:17;;;;;;;7.72;3.95;;;19.60;99.90;;;;;;5070394;28;20036;-71
2023/08/13 06:38:43;;;;;;;8.75;3.22;;;19.70;99.90;;;;;;5065552;28;20037;-71
2023/08/13 06:41:08;;;;;;;3.85;3.08;;;19.70;99.90;;;;;;5070242;28;20054;-71
2023/08/13 06:43:34;;;;;;;3.22;2.55;;;19.80;99.90;;;;;;5069361;28;20101;-71
2023/08/13 06:46:01;;;;;;;8.88;4.35;;;19.90;99.90;;;;;;5067568;28;20422;-71
2023/08/13 06:48:27;;;;;;;3.97;3.40;;;20.00;99.90;;;;;;5063431;28;20031;-71
2023/08/13 06:50:57;;;;;;;6.03;3.30;;;20.20;99.90;;;;;;5071538;28;20267;-71
2023/08/13 06:53:24;;;;;;;4.43;2.80;;;20.40;99.90;;;;;;5067054;28;20505;-71
2023/08/13 06:55:49;;;;;;;5.93;3.22;;;20.50;99.90;;;;;;5069063;28;20028;-71
2023/08/13 06:58:16;;;;;;;8.07;3.03;;;20.60;99.90;;;;;;5070166;28;20028;-71
2023/08/13 07:00:41;;;;;;;5.45;3.45;;;20.70;99.90;;;;;;5068854;28;20028;-71
2023/08/13 07:03:08;;;;;;;5.30;3.40;;;20.70;99.90;;;;;;5071455;28;20017;-71
2023/08/13 07:05:35;;;;;;;13.82;3.22;;;20.70;99.90;;;;;;5069958;28;20024;-71
2023/08/13 07:08:01;;;;;;;7.30;2.88;;;20.80;99.90;;;;;;5071032;28;20077;-71
2023/08/13 07:10:28;;;;;;;7.18;3.38;;;20.90;99.90;;;;;;5070377;28;20538;-71
2023/08/13 07:12:53;;;;;;;13.50;3.47;;;20.90;99.90;;;;;;5070437;28;20081;-71
2023/08/13 07:15:19;;;;;;;7.93;3.10;;;20.90;99.90;;;;;;5065761;28;20041;-71
2023/08/13 07:17:45;;;;;;;14.43;3.70;;;20.90;99.90;;;;;;5069906;28;20029;-71
2023/08/13 07:20:13;;;;;;;6.38;3.08;;;20.90;99.90;;;;;;5070031;28;20028;-71
2023/08/13 07:22:41;;;;;;;4.88;3.13;;;20.90;99.90;;;;;;5068081;28;20028;-71
2023/08/13 07:25:08;;;;;;;4.05;2.90;;;21.00;99.90;;;;;;5069019;28;20387;-71
2023/08/13 07:27:34;;;;;;;10.65;4.85;;;21.00;99.90;;;;;;5068351;28;20028;-71
2023/08/13 07:30:00;;;;;;;10.48;4.70;;;21.10;99.90;;;;;;5063300;28;20025;-71
2023/08/13 07:32:27;;;;;;;13.15;6.03;;;21.20;99.90;;;;;;5068969;28;20102;-71
2023/08/13 07:34:53;;;;;;;10.73;3.25;;;21.40;99.90;;;;;;5064411;28;20044;-71
2023/08/13 07:37:18;;;;;;;6.55;3.03;;;21.40;99.90;;;;;;5065372;28;20032;-71
2023/08/13 07:39:44;;;;;;;6.85;3.88;;;21.40;99.90;;;;;;5068664;28;20040;-71
2023/08/13 07:42:09;;;;;;;6.88;3.45;;;21.50;99.90;;;;;;5070379;28;20048;-71
2023/08/13 07:44:37;;;;;;;9.07;4.95;;;21.40;99.90;;;;;;5070439;28;20043;-71
2023/08/13 07:47:04;;;;;;;8.73;5.63;;;21.40;99.90;;;;;;5065185;28;20027;-71
2023/08/13 07:49:29;;;;;;;11.70;5.10;;;21.50;99.90;;;;;;5070148;28;20031;-71
2023/08/13 07:51:55;;;;;;;7.72;3.92;;;21.50;99.90;;;;;;5068328;28;20028;-70
2023/08/13 07:54:22;;;;;;;4.97;3.50;;;21.70;99.90;;;;;;5071402;28;20021;-70
2023/08/13 07:56:48;;;;;;;10.77;6.05;;;21.80;99.90;;;;;;5069681;28;20024;-70
2023/08/13 07:59:14;;;;;;;10.55;3.45;;;22.10;99.90;;;;;;5066918;28;20029;-70
2023/08/13 08:01:42;;;;;;;7.05;3.67;;;22.40;99.90;;;;;;5069273;28;20399;-69
2023/08/13 08:04:08;;;;;;;7.55;2.58;;;22.60;99.90;;;;;;5070385;28;20024;-70
2023/08/13 08:06:34;;;;;;;7.68;4.72;;;22.70;99.90;;;;;;5065728;28;20025;-70
2023/08/13 08:08:59;;;;;;;6.20;2.13;;;22.80;99.90;;;;;;5068191;28;20025;-71
2023/08/13 08:11:25;;;;;;;2.70;1.52;;;22.90;99.90;;;;;;5070221;28;20040;-71
2023/08/13 08:13:51;;;;;;;4.00;2.28;;;22.90;99.90;;;;;;5067437;28;20024;-72
2023/08/13 08:16:16;;;;;;;7.30;2.92;;;23.00;99.90;;;;;;5067031;28;20120;-72
2023/08/13 08:18:42;;;;;;;5.60;2.00;;;23.10;99.90;;;;;;5063747;28;20614;-72
2023/08/13 08:21:07;;;;;;;9.70;2.58;;;23.20;99.90;;;;;;5058297;28;20032;-72
2023/08/13 08:23:33;;;;;;;4.80;1.75;;;23.10;99.90;;;;;;5066427;28;20048;-72
2023/08/13 08:25:59;;;;;;;10.65;1.95;;;23.10;99.90;;;;;;5068900;28;20051;-72
2023/08/13 08:28:25;;;;;;;6.45;2.22;;;23.20;99.90;;;;;;5069537;28;20471;-72
2023/08/13 08:30:51;;;;;;;9.95;2.35;;;23.20;99.90;;;;;;5057863;28;20115;-72
2023/08/13 08:33:16;;;;;;;6.45;1.80;;;23.30;99.90;;;;;;5066393;28;20112;-71
2023/08/13 08:35:42;;;;;;;5.50;2.25;;;23.30;99.90;;;;;;5060171;28;20039;-72
2023/08/13 08:38:07;;;;;;;7.40;2.05;;;23.50;99.90;;;;;;5068150;28;20063;-72
2023/08/13 08:40:33;;;;;;;6.63;2.10;;;23.60;99.90;;;;;;5068935;28;20122;-72
2023/08/13 08:42:59;;;;;;;6.13;2.20;;;23.60;99.90;;;;;;5061643;28;20025;-71
2023/08/13 08:45:24;;;;;;;3.75;1.98;;;23.60;99.50;;;;;;5063968;28;20028;-72
2023/08/13 08:47:51;;;;;;;6.68;2.08;;;23.40;99.30;;;;;;5068202;28;20148;-71
2023/08/13 08:50:17;;;;;;;7.35;2.25;;;23.10;98.70;;;;;;5069081;28;20024;-72
2023/08/13 08:52:43;;;;;;;8.48;1.80;;;22.80;99.60;;;;;;5069459;28;20036;-72
2023/08/13 08:55:12;;;;;;;5.75;2.70;;;22.90;99.90;;;;;;5072658;28;20028;-72
2023/08/13 08:57:38;;;;;;;5.35;1.83;;;22.90;99.90;;;;;;5071349;28;20488;-72
2023/08/13 09:00:04;;;;;;;11.52;2.85;;;23.10;99.90;;;;;;5066272;28;20040;-72
2023/08/13 09:02:30;;;;;;;8.63;1.98;;;23.30;99.90;;;;;;5070878;28;20598;-72
2023/08/13 09:04:56;;;;;;;4.53;2.10;;;23.60;99.90;;;;;;5072796;28;20028;-72
2023/08/13 09:07:30;;;;;;;6.78;2.17;;;23.80;99.90;;;;;;5067184;28;20027;-72
2023/08/13 09:09:55;;;;;;;4.90;2.15;;;23.90;99.60;;;;;;5066516;28;20028;-71
2023/08/13 09:12:21;;;;;;;5.78;2.13;;;24.00;99.10;;;;;;5062275;28;20028;-72
2023/08/13 09:14:47;;;;;;;7.85;2.05;;;24.10;98.70;;;;;;5071826;28;20065;-72
2023/08/13 09:17:12;;;;;;;6.05;2.40;;;24.10;98.60;;;;;;5073767;28;20127;-71
2023/08/13 09:19:38;;;;;;;4.93;1.92;;;24.10;99.00;;;;;;5066360;28;20058;-74
2023/08/13 09:22:04;;;;;;;13.00;4.32;;;24.10;98.80;;;;;;5069404;28;20029;-72
2023/08/13 09:24:35;;;;;;;7.25;5.32;;;24.10;98.90;;;;;;5072331;28;20017;-72
2023/08/13 09:27:01;;;;;;;11.77;6.15;;;24.00;98.80;;;;;;5065392;28;20036;-71
2023/08/13 09:29:29;;;;;;;9.38;3.25;;;24.10;98.70;;;;;;5072691;28;20020;-71
2023/08/13 09:31:55;;;;;;;7.75;3.92;;;24.10;98.40;;;;;;5067235;28;20585;-71
2023/08/13 09:34:21;;;;;;;6.55;4.03;;;24.10;98.60;;;;;;5068911;28;20151;-71
2023/08/13 09:36:46;;;;;;;5.53;2.67;;;24.20;98.60;;;;;;5066975;28;20111;-72
2023/08/13 09:39:12;;;;;;;8.63;4.40;;;24.30;98.30;;;;;;5066489;28;20028;-72
2023/08/13 09:41:37;;;;;;;8.35;2.88;;;24.40;98.40;;;;;;5069917;28;20028;-72
2023/08/13 09:44:13;;;;;;;5.35;2.17;;;24.40;98.30;;;;;;5068276;28;20475;-72
2023/08/13 09:46:40;;;;;;;;;;;24.50;98.10;;;;;;5062143;28;20020;-72
2023/08/13 09:49:09;;;;;;;5.93;2.92;;;24.60;97.60;;;;;;5069833;28;19923;-71
2023/08/13 09:51:38;;;;;;;4.97;2.30;;;24.70;97.80;;;;;;5062498;28;20033;-71
2023/08/13 09:54:13;;;;;;;6.97;2.67;;;24.90;97.40;;;;;;5064123;28;20074;-71
2023/08/13 09:56:42;;;;;;;4.63;2.20;;;25.10;97.30;;;;;;5067323;28;20025;-71
2023/08/13 09:59:08;;;;;;;6.50;2.25;;;25.30;97.20;;;;;;5062018;28;20028;-71
2023/08/13 10:01:34;;;;;;;6.95;1.75;;;25.50;96.40;;;;;;5065877;28;20093;-72
2023/08/13 10:04:01;;;;;;;5.47;1.88;;;25.70;96.20;;;;;;5062743;28;20032;-72
2023/08/13 10:06:26;;;;;;;6.05;1.67;;;25.80;95.60;;;;;;5062734;28;20022;-72
2023/08/13 10:08:52;;;;;;;7.22;2.15;;;25.80;94.90;;;;;;5065551;28;20025;-72
2023/08/13 10:11:19;;;;;;;5.35;2.17;;;25.80;94.90;;;;;;5064862;28;20028;-73
2023/08/13 10:13:45;;;;;;;6.07;2.28;;;25.80;95.10;;;;;;5067818;28;20029;-73
2023/08/13 10:16:12;;;;;;;4.43;1.35;;;25.80;94.70;;;;;;5064434;28;20032;-73
2023/08/13 10:18:38;;;;;;;4.10;2.13;;;25.90;94.80;;;;;;5064144;28;20025;-72
2023/08/13 10:21:03;;;;;;;6.63;2.55;;;26.00;94.70;;;;;;5064102;28;20047;-72
2023/08/13 10:23:29;;;;;;;4.13;1.90;;;26.10;94.40;;;;;;5063726;28;20021;-73
2023/08/13 10:25:56;;;;;;;4.70;1.75;;;26.10;94.00;;;;;;5066844;28;20052;-72
2023/08/13 10:28:31;;;;;;;4.90;1.88;;;26.00;93.90;;;;;;5066750;28;20052;-72
2023/08/13 10:31:29;;;;;;;3.77;1.57;;;26.00;94.10;;;;;;5067380;28;20023;-73
2023/08/13 10:34:10;;;;;;;5.13;1.73;;;26.00;93.70;;;;;;5065962;28;20032;-72
2023/08/13 10:36:51;;;;;;;3.83;1.45;;;26.00;93.00;;;;;;5066539;28;20385;-72
2023/08/13 10:39:42;;;;;;;5.00;1.80;;;26.00;93.70;;;;;;5061041;28;20028;-72
2023/08/13 10:42:26;;;;;;;3.53;1.58;;;26.10;93.40;;;;;;5066097;28;20067;-72
2023/08/13 10:44:51;;;;;;;9.00;2.55;;;26.10;93.10;;;;;;5069076;28;20045;-72
2023/08/13 10:47:17;;;;;;;5.50;1.90;;;26.00;93.10;;;;;;5061637;28;20472;-72
2023/08/13 10:49:43;;;;;;;5.53;2.20;;;26.00;93.00;;;;;;5067990;28;20391;-72
2023/08/13 10:52:08;;;;;;;5.60;1.60;;;26.00;92.90;;;;;;5066447;28;20119;-72
2023/08/13 10:54:34;;;;;;;7.18;2.08;;;26.10;92.60;;;;;;5069863;28;20033;-72
2023/08/13 10:57:01;;;;;;;8.50;2.47;;;26.20;93.00;;;;;;5068567;28;20028;-71
2023/08/13 10:59:39;;;;;;;4.25;1.80;;;26.20;92.40;;;;;;5068419;28;20032;-72
2023/08/13 11:02:15;;;;;;;4.38;1.80;;;26.20;92.70;;;;;;5064927;28;20137;-72
2023/08/13 11:04:43;;;;;;;5.88;2.33;;;26.30;92.30;;;;;;5062040;28;20406;-72
2023/08/13 11:07:10;;;;;;;6.22;1.95;;;26.30;92.30;;;;;;5067700;28;20094;-72
2023/08/13 11:09:37;;;;;;;5.85;2.22;;;26.30;91.60;;;;;;5061241;28;20418;-72
2023/08/13 11:12:05;;;;;;;5.30;2.00;;;26.10;91.70;;;;;;5068344;28;20042;-72
2023/08/13 11:14:30;;;;;;;7.95;1.90;;;26.00;92.00;;;;;;5068195;28;20176;-73
2023/08/13 11:16:56;;;;;;;3.58;1.50;;;26.20;91.90;;;;;;5067431;28;20070;-72
2023/08/13 11:19:22;;;;;;;4.18;1.25;;;26.30;91.70;;;;;;5069955;28;20482;-72
2023/08/13 11:21:48;;;;;;;6.85;3.03;;;26.30;91.50;;;;;;5075023;22;20044;-77
2023/08/13 11:24:15;;;;;;;8.63;2.75;;;26.30;91.50;;;;;;5046050;28;20049;-78
2023/08/13 11:26:41;;;;;;;7.22;2.80;;;26.50;91.80;;;;;;5049903;28;20021;-78
2023/08/13 11:29:06;;;;;;;7.15;2.03;;;26.60;91.00;;;;;;5048262;28;20082;-77
2023/08/13 11:31:35;;;;;;;5.97;2.03;;;26.70;91.00;;;;;;5043611;28;20056;-77
2023/08/13 11:34:00;;;;;;;5.65;1.50;;;26.80;91.10;;;;;;5041809;28;20021;-77
2023/08/13 11:36:27;;;;;;;11.57;2.58;;;26.70;90.90;;;;;;5040645;28;20051;-77
2023/08/13 11:38:52;;;;;;;3.97;1.52;;;26.70;90.50;;;;;;5039635;28;20078;-78
2023/08/13 11:41:21;;;;;;;7.45;2.60;;;26.70;91.00;;;;;;5046267;28;20116;-78
2023/08/13 11:43:53;;;;;;;4.47;1.63;;;26.80;91.00;;;;;;5048172;28;20021;-78
2023/08/13 11:46:19;;;;;;;6.10;1.80;;;26.80;90.90;;;;;;5047787;28;20041;-78
2023/08/13 11:48:44;;;;;;;3.03;1.30;;;26.70;90.70;;;;;;5043147;28;20017;-78
2023/08/13 11:51:13;;;;;;;7.18;2.17;;;26.60;90.70;;;;;;5048364;28;20029;-78
2023/08/13 11:53:46;;;;;;;6.25;1.92;;;26.60;90.50;;;;;;5047300;28;20128;-78
2023/08/13 11:56:14;;;;;;;4.43;1.17;;;26.50;90.40;;;;;;5043859;28;20033;-77
2023/08/13 11:58:40;;;;;;;4.68;1.42;;;26.40;90.40;;;;;;5039628;28;20438;-77
2023/08/13 12:01:06;;;;;;;3.60;1.50;;;26.40;90.10;;;;;;5045215;28;20247;-78
2023/08/13 12:03:39;;;;;;;2.65;1.90;;;26.20;90.00;;;;;;5049046;28;20115;-78
2023/08/13 12:06:05;;;;;;;3.05;1.27;;;26.00;90.40;;;;;;5044377;28;20029;-78
2023/08/13 12:08:31;;;;;;;4.22;1.00;;;25.90;90.60;;;;;;5045592;28;20498;-78
2023/08/13 12:10:58;;;;;;;4.55;1.25;;;25.90;90.80;;;;;;5046871;28;20107;-78
2023/08/13 12:13:24;;;;;;;5.80;1.20;;;25.90;90.70;;;;;;5047316;28;20456;-78
2023/08/13 12:15:50;;;;;;;5.18;1.70;;;26.00;90.80;;;;;;5045607;28;20033;-79
2023/08/13 12:18:15;;;;;;;6.97;1.58;;;26.10;90.70;;;;;;5039744;28;20052;-78
2023/08/13 12:20:41;;;;;;;5.70;1.95;;;26.40;90.70;;;;;;5048613;28;20051;-78
2023/08/13 12:23:06;;;;;;;8.93;2.45;;;26.50;90.50;;;;;;5048480;28;20446;-79
2023/08/13 12:25:32;;;;;;;9.63;2.45;;;26.60;89.20;;;;;;5049193;28;20013;-78
2023/08/13 12:27:57;;;;;;;6.13;2.08;;;26.40;90.10;;;;;;5053623;28;20430;-79
2023/08/13 12:30:23;;;;;;;5.65;2.40;;;26.40;90.50;;;;;;5048106;28;20032;-79
2023/08/13 12:32:49;;;;;;;3.42;1.77;;;26.50;90.50;;;;;;5052590;28;20443;-79
2023/08/13 12:35:14;;;;;;;4.47;1.58;;;26.40;90.60;;;;;;5049647;28;20033;-79
2023/08/13 12:37:40;;;;;;;9.20;1.65;;;26.40;90.60;;;;;;5053099;28;20483;-81
2023/08/13 12:40:09;;;;;;;7.35;1.98;;;26.40;90.40;;;;;;5050988;28;20034;-80
2023/08/13 12:42:35;;;;;;;4.05;1.60;;;26.30;90.70;;;;;;5046838;28;20025;-80